createdAt,value
2023-04-11T00:01:50.168Z,0.68
2023-04-11T00:04:17.985Z,0.70
2023-04-11T00:06:45.769Z,0.80
2023-04-11T00:09:13.146Z,0.75
2023-04-11T00:11:40.407Z,0.98
2023-04-11T00:14:09.300Z,0.80
2023-04-11T00:16:36.987Z,0.80
2023-04-11T00:19:04.469Z,1.00
2023-04-11T00:21:31.953Z,0.70
2023-04-11T00:23:59.545Z,1.10
2023-04-11T00:26:26.675Z,1.08
2023-04-11T00:28:54.316Z,0.90
2023-04-11T00:31:22.016Z,0.80
2023-04-11T00:33:49.111Z,1.00
2023-04-11T00:36:19.528Z,0.90
2023-04-11T00:38:49.483Z,1.30
2023-04-11T00:41:17.032Z,0.77
2023-04-11T00:43:44.274Z,1.30
2023-04-11T00:46:12.119Z,0.90
2023-04-11T00:48:39.846Z,0.90
2023-04-11T00:51:07.875Z,0.88
2023-04-11T00:53:37.484Z,0.80
2023-04-11T00:56:04.889Z,0.80
2023-04-11T00:58:34.079Z,0.90
2023-04-11T01:01:02.423Z,0.88
2023-04-11T01:03:30.493Z,0.90
2023-04-11T01:05:58.367Z,1.20
2023-04-11T01:08:26.516Z,0.90
2023-04-11T01:10:53.887Z,0.85
2023-04-11T01:13:23.936Z,0.85
2023-04-11T01:15:51.265Z,0.88
2023-04-11T01:18:19.242Z,1.10
2023-04-11T01:20:47.280Z,1.20
2023-04-11T01:23:20.016Z,1.00
2023-04-11T01:26:01.065Z,0.93
2023-04-11T01:28:31.985Z,0.90
2023-04-11T01:31:04.555Z,0.68
2023-04-11T01:33:35.296Z,0.60
2023-04-11T01:36:02.811Z,0.60
2023-04-11T01:38:30.144Z,1.05
2023-04-11T01:40:58.566Z,0.68
2023-04-11T01:43:25.916Z,0.73
2023-04-11T01:45:53.710Z,0.90
2023-04-11T01:48:21.752Z,0.77
2023-04-11T01:50:53.215Z,0.98
2023-04-11T01:53:20.648Z,0.77
2023-04-11T01:55:47.826Z,1.40
2023-04-11T01:58:15.041Z,1.10
2023-04-11T02:00:42.144Z,0.93
2023-04-11T02:03:09.415Z,0.85
2023-04-11T02:05:36.937Z,0.70
2023-04-11T02:08:04.501Z,0.90
2023-04-11T02:10:39.249Z,1.02
2023-04-11T02:13:07.805Z,1.00
2023-04-11T02:15:48.738Z,1.00
2023-04-11T02:18:16.109Z,0.80
2023-04-11T02:20:43.274Z,0.93
2023-04-11T02:23:13.181Z,0.50
2023-04-11T02:25:40.932Z,0.90
2023-04-11T02:28:08.460Z,0.68
2023-04-11T02:30:36.186Z,0.90
2023-04-11T02:33:04.588Z,0.60
2023-04-11T02:35:34.092Z,0.75
2023-04-11T02:38:01.488Z,0.60
2023-04-11T02:40:29.106Z,0.88
2023-04-11T02:42:58.729Z,0.73
2023-04-11T02:45:26.443Z,0.80
2023-04-11T02:47:54.294Z,0.90
2023-04-11T02:50:23.675Z,0.80
2023-04-11T02:52:51.159Z,1.02
2023-04-11T02:55:18.981Z,0.98
2023-04-11T02:57:46.006Z,1.30
2023-04-11T03:00:22.989Z,0.82
2023-04-11T03:02:53.442Z,0.80
2023-04-11T03:05:20.625Z,1.00
2023-04-11T03:07:47.872Z,0.80
2023-04-11T03:10:15.471Z,1.02
2023-04-11T03:12:42.529Z,0.88
2023-04-11T03:15:15.985Z,1.02
2023-04-11T03:17:46.005Z,1.13
2023-04-11T03:20:13.964Z,0.82
2023-04-11T03:22:44.122Z,0.90
2023-04-11T03:25:11.579Z,0.60
2023-04-11T03:27:39.138Z,0.75
2023-04-11T03:30:06.997Z,0.88
2023-04-11T03:32:34.360Z,1.00
2023-04-11T03:35:02.274Z,0.88
2023-04-11T03:37:29.625Z,1.10
2023-04-11T03:39:58.280Z,0.75
2023-04-11T03:42:26.040Z,0.90
2023-04-11T03:44:53.330Z,0.93
2023-04-11T03:47:22.869Z,0.90
2023-04-11T03:49:55.801Z,1.02
2023-04-11T03:52:23.149Z,0.95
2023-04-11T03:54:50.302Z,1.10
2023-04-11T03:57:17.875Z,0.77
2023-04-11T03:59:48.202Z,1.00
2023-04-11T04:02:26.584Z,0.93
2023-04-11T04:05:01.480Z,0.85
2023-04-11T04:07:29.278Z,0.68
2023-04-11T04:09:56.688Z,1.00
2023-04-11T04:12:54.696Z,0.70
2023-04-11T04:15:22.098Z,0.90
2023-04-11T04:17:49.720Z,0.73
2023-04-11T04:20:17.135Z,0.85
2023-04-11T04:22:47.505Z,1.10
2023-04-11T04:25:16.071Z,1.00
2023-04-11T04:27:53.397Z,1.10
2023-04-11T04:30:24.275Z,0.98
2023-04-11T04:32:54.992Z,1.05
2023-04-11T04:35:28.169Z,1.08
2023-04-11T04:37:55.820Z,1.13
2023-04-11T04:40:26.262Z,0.88
2023-04-11T04:42:58.715Z,1.10
2023-04-11T04:45:38.677Z,1.05
2023-04-11T04:48:14.265Z,1.33
2023-04-11T04:50:42.909Z,1.10
2023-04-11T04:53:18.774Z,1.40
2023-04-11T04:55:47.442Z,1.25
2023-04-11T04:58:15.288Z,1.30
2023-04-11T05:00:42.948Z,1.02
2023-04-11T05:03:17.543Z,1.00
2023-04-11T05:05:44.947Z,1.35
2023-04-11T05:08:12.338Z,1.00
2023-04-11T05:10:39.796Z,1.20
2023-04-11T05:13:09.475Z,1.25
2023-04-11T05:15:36.755Z,0.90
2023-04-11T05:18:04.133Z,1.02
2023-04-11T05:20:34.035Z,1.15
2023-04-11T05:23:01.505Z,1.55
2023-04-11T05:25:28.968Z,1.13
2023-04-11T05:27:56.730Z,0.60
2023-04-11T05:30:24.574Z,1.38
2023-04-11T05:32:52.179Z,1.30
2023-04-11T05:35:26.756Z,1.20
2023-04-11T05:38:00.489Z,1.35
2023-04-11T05:40:27.815Z,1.20
2023-04-11T05:42:55.232Z,0.88
2023-04-11T05:45:22.971Z,1.00
2023-04-11T05:47:50.115Z,1.27
2023-04-11T05:50:17.802Z,1.20
2023-04-11T05:52:45.561Z,1.38
2023-04-11T05:55:12.734Z,0.93
2023-04-11T05:57:40.413Z,1.02
2023-04-11T06:00:14.509Z,1.00
2023-04-11T06:02:42.967Z,0.77
2023-04-11T06:05:12.223Z,0.85
2023-04-11T06:07:40.381Z,0.60
2023-04-11T06:10:09.535Z,1.13
2023-04-11T06:12:37.473Z,0.95
2023-04-11T06:15:05.625Z,1.10
2023-04-11T06:17:33.498Z,1.23
2023-04-11T06:20:06.183Z,1.08
2023-04-11T06:22:34.345Z,0.52
2023-04-11T06:25:03.642Z,0.57
2023-04-11T06:27:31.924Z,0.50
2023-04-11T06:29:59.482Z,0.40
2023-04-11T06:32:26.985Z,0.32
2023-04-11T06:34:55.047Z,0.52
2023-04-11T06:37:27.301Z,0.93
2023-04-11T06:39:54.740Z,0.10
2023-04-11T06:42:24.757Z,0.17
2023-04-11T06:44:54.875Z,0.22
2023-04-11T06:47:24.830Z,0.20
2023-04-11T06:50:07.750Z,0.13
2023-04-11T06:52:35.162Z,0.10
2023-04-11T06:55:02.739Z,0.30
2023-04-11T06:57:29.661Z,0.40
2023-04-11T06:59:56.741Z,0.20
2023-04-11T07:02:25.981Z,0.40
2023-04-11T07:04:53.536Z,0.30
2023-04-11T07:07:21.530Z,0.20
2023-04-11T07:10:05.431Z,0.20
2023-04-11T07:12:34.824Z,0.30
2023-04-11T07:15:04.009Z,0.10
2023-04-11T07:17:32.076Z,0.10
2023-04-11T07:19:59.288Z,0.30
2023-04-11T07:22:27.343Z,0.10
2023-04-11T07:25:07.956Z,0.15
2023-04-11T07:27:40.483Z,0.20
2023-04-11T07:32:50.888Z,0.00
2023-04-11T07:35:18.468Z,0.17
2023-04-11T07:37:46.478Z,0.20
2023-04-11T07:40:14.761Z,0.20
2023-04-11T07:42:49.491Z,0.20
2023-04-11T07:45:20.124Z,0.30
2023-04-11T07:50:30.793Z,0.20
2023-04-11T07:53:02.593Z,0.15
2023-04-11T07:55:32.366Z,0.10
2023-04-11T07:57:59.912Z,0.10
2023-04-11T08:00:28.964Z,0.00
2023-04-11T08:02:59.375Z,0.20
2023-04-11T08:05:28.076Z,0.30
2023-04-11T08:07:55.697Z,0.20
2023-04-11T08:10:23.069Z,0.50
2023-04-11T08:12:50.815Z,0.30
2023-04-11T08:15:18.951Z,0.63
2023-04-11T08:17:56.396Z,0.38
2023-04-11T08:20:27.087Z,0.17
2023-04-11T08:22:54.538Z,0.10
2023-04-11T08:25:24.969Z,0.10
2023-04-11T08:27:52.810Z,0.68
2023-04-11T08:30:20.809Z,0.45
2023-04-11T08:32:48.331Z,0.50
2023-04-11T08:35:15.899Z,0.55
2023-04-11T08:37:51.225Z,0.20
2023-04-11T08:40:18.900Z,0.08
2023-04-11T08:42:47.178Z,0.10
2023-04-11T08:45:15.114Z,0.10
2023-04-11T08:47:45.299Z,0.15
2023-04-11T08:52:42.470Z,0.17
2023-04-11T08:55:13.454Z,0.17
2023-04-11T08:57:40.511Z,0.20
2023-04-11T09:00:14.932Z,0.10
2023-04-11T09:03:08.140Z,0.20
2023-04-11T09:05:44.677Z,0.15
2023-04-11T09:08:17.144Z,0.32
2023-04-11T09:10:47.662Z,0.20
2023-04-11T09:13:28.274Z,0.32
2023-04-11T09:16:06.766Z,0.22
2023-04-11T09:18:42.542Z,0.40
2023-04-11T09:23:39.712Z,0.22
2023-04-11T09:28:54.463Z,0.73
2023-04-11T09:31:38.398Z,0.20
2023-04-11T09:34:07.159Z,0.30
2023-04-11T09:36:34.917Z,0.28
2023-04-11T09:39:17.975Z,0.20
2023-04-11T09:41:45.918Z,0.30
2023-04-11T09:44:13.568Z,0.10
2023-04-11T09:46:57.355Z,0.10
2023-04-11T09:49:24.797Z,0.30
2023-04-11T09:51:56.113Z,0.30
2023-04-11T09:54:24.008Z,0.25
2023-04-11T09:56:51.320Z,0.30
2023-04-11T09:59:21.418Z,0.95
2023-04-11T10:01:50.436Z,0.15
2023-04-11T10:04:17.585Z,0.30
2023-04-11T10:07:04.020Z,0.38
2023-04-11T10:09:37.641Z,0.30
2023-04-11T10:12:05.021Z,0.20
2023-04-11T10:14:38.515Z,0.20
2023-04-11T10:17:24.394Z,0.15
2023-04-11T10:19:56.951Z,0.30
2023-04-11T10:22:43.790Z,0.20
2023-04-11T10:25:21.913Z,0.30
2023-04-11T10:27:50.921Z,0.40
2023-04-11T10:30:18.174Z,0.40
2023-04-11T10:33:10.739Z,0.30
2023-04-11T10:35:59.775Z,0.30
2023-04-11T10:38:47.410Z,0.45
2023-04-11T10:41:33.816Z,0.30
2023-04-11T10:44:25.047Z,0.22
2023-04-11T10:49:41.096Z,0.32
2023-04-11T10:52:24.981Z,0.28
2023-04-11T10:54:53.670Z,0.30
2023-04-11T10:57:21.800Z,0.17
2023-04-11T10:59:52.301Z,0.30
2023-04-11T11:02:22.050Z,0.40
2023-04-11T11:04:50.134Z,0.25
2023-04-11T11:07:17.580Z,0.30
2023-04-11T11:09:49.705Z,0.50
2023-04-11T11:12:17.637Z,0.20
2023-04-11T11:14:46.708Z,0.52
2023-04-11T11:17:15.955Z,0.38
2023-04-11T11:19:47.643Z,0.40
2023-04-11T11:22:18.649Z,0.50
2023-04-11T11:24:46.350Z,0.20
2023-04-11T11:27:25.236Z,0.40
2023-04-11T11:29:53.661Z,0.65
2023-04-11T11:32:28.894Z,0.63
2023-04-11T11:35:00.465Z,0.43
2023-04-11T11:37:27.767Z,0.20
2023-04-11T11:39:55.598Z,0.38
2023-04-11T11:42:35.274Z,0.38
2023-04-11T11:45:19.590Z,0.32
2023-04-11T11:47:48.610Z,0.20
2023-04-11T11:50:30.243Z,0.70
2023-04-11T11:53:16.699Z,0.20
2023-04-11T11:55:43.991Z,0.65
2023-04-11T11:58:11.298Z,0.30
2023-04-11T12:00:40.671Z,0.38
2023-04-11T12:03:21.217Z,0.30
2023-04-11T12:05:49.544Z,0.40
2023-04-11T12:08:18.997Z,0.28
2023-04-11T12:10:47.071Z,0.30
2023-04-11T12:13:23.620Z,0.40
2023-04-11T12:18:26.789Z,0.75
2023-04-11T12:20:58.877Z,0.20
2023-04-11T12:23:26.190Z,0.38
2023-04-11T12:25:53.234Z,0.35
2023-04-11T12:28:20.668Z,0.28
2023-04-11T12:30:48.038Z,0.30
2023-04-11T12:33:16.644Z,0.30
2023-04-11T12:35:43.940Z,0.30
2023-04-11T12:38:14.911Z,0.30
2023-04-11T12:40:46.106Z,0.30
2023-04-11T12:43:13.221Z,0.50
2023-04-11T12:45:40.727Z,0.35
2023-04-11T12:48:08.667Z,0.43
2023-04-11T12:50:35.868Z,0.20
2023-04-11T12:53:06.345Z,0.22
2023-04-11T12:55:45.172Z,0.30
2023-04-11T12:58:12.904Z,0.35
2023-04-11T13:00:42.641Z,0.47
2023-04-11T13:03:11.487Z,0.20
2023-04-11T13:05:41.117Z,0.40
2023-04-11T13:08:08.771Z,0.38
2023-04-11T13:10:36.360Z,0.50
2023-04-11T13:13:15.376Z,0.60
2023-04-11T13:15:46.660Z,0.40
2023-04-11T13:18:14.375Z,0.55
2023-04-11T13:20:42.791Z,0.30
2023-04-11T13:23:10.549Z,0.30
2023-04-11T13:25:39.178Z,1.10
2023-04-11T13:28:06.758Z,0.65
2023-04-11T13:30:34.467Z,0.50
2023-04-11T13:33:02.092Z,0.30
2023-04-11T13:35:29.930Z,0.60
2023-04-11T13:37:57.927Z,0.30
2023-04-11T13:40:25.288Z,0.47
2023-04-11T13:42:54.892Z,0.63
2023-04-11T13:45:22.447Z,0.20
2023-04-11T13:47:49.987Z,0.65
2023-04-11T13:50:17.215Z,0.13
2023-04-11T13:52:44.778Z,0.20
2023-04-11T13:55:12.464Z,0.20
2023-04-11T13:57:40.131Z,0.20
2023-04-11T14:00:11.401Z,0.20
2023-04-11T14:02:46.922Z,0.20
2023-04-11T14:05:14.473Z,0.20
2023-04-11T14:07:41.875Z,0.55
2023-04-11T14:10:09.809Z,0.30
2023-04-11T14:12:40.535Z,0.20
2023-04-11T14:17:48.510Z,0.60
2023-04-11T14:20:16.950Z,0.13
2023-04-11T14:22:45.493Z,0.30
2023-04-11T14:25:14.090Z,0.22
2023-04-11T14:27:41.696Z,0.20
2023-04-11T14:30:15.712Z,0.30
2023-04-11T14:32:46.109Z,0.38
2023-04-11T14:35:13.470Z,0.57
2023-04-11T14:37:40.721Z,0.13
2023-04-11T14:40:11.316Z,0.40
2023-04-11T14:42:39.959Z,0.30
2023-04-11T14:45:18.035Z,0.47
2023-04-11T14:47:50.611Z,0.22
2023-04-11T14:50:17.796Z,0.50
2023-04-11T14:52:45.314Z,0.40
2023-04-11T14:55:13.065Z,0.40
2023-04-11T14:57:48.589Z,0.50
2023-04-11T15:00:20.106Z,0.40
2023-04-11T15:02:49.933Z,0.43
2023-04-11T15:05:18.368Z,0.30
2023-04-11T15:07:47.998Z,0.40
2023-04-11T15:10:20.857Z,0.50
2023-04-11T15:12:48.086Z,0.40
2023-04-11T15:15:16.298Z,0.45
2023-04-11T15:17:49.287Z,0.20
2023-04-11T15:20:19.619Z,0.20
2023-04-11T15:22:47.959Z,0.57
2023-04-11T15:25:18.997Z,0.40
2023-04-11T15:28:00.479Z,0.15
2023-04-11T15:30:28.457Z,0.40
2023-04-11T15:32:56.206Z,0.28
2023-04-11T15:35:25.679Z,0.40
2023-04-11T15:37:55.369Z,0.47
2023-04-11T15:40:22.352Z,0.30
2023-04-11T15:42:49.971Z,0.20
2023-04-11T15:45:17.026Z,0.40
2023-04-11T15:47:44.170Z,0.55
2023-04-11T15:50:12.185Z,0.55
2023-04-11T15:52:39.450Z,0.25
2023-04-11T15:55:07.572Z,0.40
2023-04-11T15:57:34.603Z,0.43
2023-04-11T16:00:01.617Z,0.45
2023-04-11T16:02:28.980Z,0.30
2023-04-11T16:04:56.182Z,0.35
2023-04-11T16:07:23.445Z,0.30
2023-04-11T16:09:50.480Z,0.30
2023-04-11T16:12:18.605Z,0.15
2023-04-11T16:14:46.166Z,0.10
2023-04-11T16:17:16.683Z,0.10
2023-04-11T16:19:44.139Z,0.50
2023-04-11T16:22:11.927Z,0.30
2023-04-11T16:24:39.516Z,0.20
2023-04-11T16:27:21.770Z,0.32
2023-04-11T16:29:49.285Z,0.32
2023-04-11T16:32:16.900Z,0.50
2023-04-11T16:34:44.375Z,0.10
2023-04-11T16:37:11.677Z,0.68
2023-04-11T16:39:38.975Z,0.20
2023-04-11T16:42:06.250Z,0.20
2023-04-11T16:44:33.286Z,0.30
2023-04-11T16:47:00.810Z,0.28
2023-04-11T16:49:28.022Z,0.50
2023-04-11T16:51:55.462Z,0.40
2023-04-11T16:54:22.997Z,0.30
2023-04-11T16:56:53.104Z,0.20
2023-04-11T16:59:20.640Z,0.50
2023-04-11T17:01:48.181Z,0.40
2023-04-11T17:04:20.269Z,0.20
2023-04-11T17:06:47.861Z,0.20
2023-04-11T17:09:17.739Z,0.43
2023-04-11T17:11:44.866Z,0.43
2023-04-11T17:14:12.603Z,0.57
2023-04-11T17:16:39.894Z,0.50
2023-04-11T17:19:07.595Z,0.60
2023-04-11T17:21:49.363Z,0.45
2023-04-11T17:24:17.290Z,1.13
2023-04-11T17:26:44.653Z,0.35
2023-04-11T17:29:12.596Z,0.55
2023-04-11T17:31:39.975Z,0.60
2023-04-11T17:34:10.234Z,0.50
2023-04-11T17:36:44.569Z,0.73
2023-04-11T17:39:17.873Z,0.60
2023-04-11T17:41:46.151Z,0.70
2023-04-11T17:44:13.602Z,1.05
2023-04-11T17:46:59.807Z,0.68
2023-04-11T17:49:27.723Z,0.60
2023-04-11T17:52:09.390Z,0.68
2023-04-11T17:54:40.467Z,0.50
2023-04-11T17:57:13.623Z,0.45
2023-04-11T17:59:41.010Z,0.40
2023-04-11T18:02:08.360Z,0.82
2023-04-11T18:04:35.641Z,0.50
2023-04-11T18:07:03.203Z,0.68
2023-04-11T18:09:32.036Z,0.70
2023-04-11T18:11:59.407Z,0.70
2023-04-11T18:14:26.643Z,0.70
2023-04-11T18:16:57.628Z,0.98
2023-04-11T18:19:25.139Z,0.95
2023-04-11T18:21:52.676Z,0.55
2023-04-11T18:24:19.927Z,0.77
2023-04-11T18:26:48.517Z,0.73
2023-04-11T18:29:18.737Z,0.70
2023-04-11T18:31:46.303Z,0.93
2023-04-11T18:34:14.126Z,0.68
2023-04-11T18:36:48.162Z,0.60
2023-04-11T18:39:17.768Z,0.50
2023-04-11T18:41:45.604Z,0.80
2023-04-11T18:44:13.705Z,0.75
2023-04-11T18:46:41.561Z,1.05
2023-04-11T18:49:09.577Z,0.93
2023-04-11T18:51:38.118Z,1.38
2023-04-11T18:54:05.550Z,1.42
2023-04-11T18:56:38.731Z,1.17
2023-04-11T18:59:09.707Z,1.65
2023-04-11T19:01:38.472Z,1.25
2023-04-11T19:04:06.155Z,1.00
2023-04-11T19:06:34.166Z,1.25
2023-04-11T19:09:04.408Z,0.90
2023-04-11T19:11:31.866Z,0.90
2023-04-11T19:14:00.229Z,0.80
2023-04-11T19:16:27.563Z,0.82
2023-04-11T19:18:55.469Z,1.00
2023-04-11T19:21:26.617Z,0.85
2023-04-11T19:23:54.897Z,0.93
2023-04-11T19:26:22.672Z,0.80
2023-04-11T19:28:49.807Z,1.00
2023-04-11T19:31:17.725Z,2.10
2023-04-11T19:33:45.551Z,3.33
2023-04-11T19:36:13.481Z,1.40
2023-04-11T19:38:41.517Z,1.27
2023-04-11T19:41:13.646Z,1.20
2023-04-11T19:43:42.834Z,1.10
2023-04-11T19:46:13.734Z,0.60
2023-04-11T19:48:47.204Z,0.98
2023-04-11T19:51:14.760Z,0.50
2023-04-11T19:53:41.963Z,0.57
2023-04-11T19:56:12.538Z,0.57
2023-04-11T19:58:40.154Z,0.43
2023-04-11T20:01:07.612Z,1.20
2023-04-11T20:03:36.318Z,0.70
2023-04-11T20:06:06.864Z,0.30
2023-04-11T20:08:34.040Z,0.90
2023-04-11T20:11:03.986Z,1.23
2023-04-11T20:13:31.985Z,1.30
2023-04-11T20:15:59.456Z,1.80
2023-04-11T20:18:27.904Z,1.30
2023-04-11T20:20:59.033Z,1.42
2023-04-11T20:23:26.629Z,1.00
2023-04-11T20:25:54.902Z,0.80
2023-04-11T20:28:22.065Z,1.10
2023-04-11T20:30:49.793Z,0.93
2023-04-11T20:33:17.237Z,0.93
2023-04-11T20:35:45.076Z,0.68
2023-04-11T20:38:14.687Z,1.23
2023-04-11T20:40:41.780Z,0.85
2023-04-11T20:43:09.965Z,0.68
2023-04-11T20:45:46.741Z,0.43
2023-04-11T20:50:42.032Z,0.40
2023-04-11T20:53:11.673Z,0.43
2023-04-11T20:55:45.945Z,0.57
2023-04-11T20:58:17.256Z,0.73
2023-04-11T21:00:44.798Z,0.73
2023-04-11T21:03:13.467Z,0.40
2023-04-11T21:05:44.497Z,0.30
2023-04-11T21:08:12.153Z,0.40
2023-04-11T21:10:39.510Z,0.40
2023-04-11T21:13:07.124Z,0.20
2023-04-11T21:15:35.063Z,0.20
2023-04-11T21:18:07.319Z,0.40
2023-04-11T21:20:40.930Z,0.20
2023-04-11T21:23:08.151Z,0.35
2023-04-11T21:25:36.924Z,0.20
2023-04-11T21:28:04.909Z,0.30
2023-04-11T21:30:32.555Z,0.30
2023-04-11T21:32:59.795Z,0.30
2023-04-11T21:35:27.856Z,0.25
2023-04-11T21:37:55.632Z,0.20
2023-04-11T21:40:25.993Z,0.20
2023-04-11T21:42:55.915Z,0.30
2023-04-11T21:45:23.676Z,0.50
2023-04-11T21:47:53.746Z,0.30
2023-04-11T21:50:21.117Z,0.45
2023-04-11T21:52:48.411Z,0.20
2023-04-11T21:55:16.069Z,0.32
2023-04-11T21:57:43.456Z,0.38
2023-04-11T22:00:11.244Z,0.40
2023-04-11T22:02:38.924Z,0.40
2023-04-11T22:05:11.588Z,0.38
2023-04-11T22:07:46.388Z,0.20
2023-04-11T22:10:14.425Z,0.28
2023-04-11T22:12:42.149Z,0.40
2023-04-11T22:15:12.858Z,0.50
2023-04-11T22:17:42.429Z,0.20
2023-04-11T22:20:11.316Z,0.50
2023-04-11T22:22:39.011Z,0.40
2023-04-11T22:25:07.723Z,0.40
2023-04-11T22:27:35.024Z,0.28
2023-04-11T22:30:02.655Z,0.20
2023-04-11T22:32:30.760Z,0.20
2023-04-11T22:34:59.406Z,0.40
2023-04-11T22:37:27.332Z,0.60
2023-04-11T22:39:56.018Z,0.30
2023-04-11T22:42:23.398Z,0.65
2023-04-11T22:44:50.794Z,0.22
2023-04-11T22:47:22.082Z,0.40
2023-04-11T22:49:49.123Z,0.17
2023-04-11T22:52:19.453Z,0.20
2023-04-11T22:54:47.315Z,0.43
2023-04-11T22:57:14.810Z,0.17
2023-04-11T22:59:42.321Z,0.47
2023-04-11T23:02:10.400Z,0.30
2023-04-11T23:04:37.542Z,0.30
2023-04-11T23:07:05.747Z,0.60
2023-04-11T23:09:33.128Z,0.63
2023-04-11T23:12:00.406Z,0.60
2023-04-11T23:14:31.530Z,0.75
2023-04-11T23:16:58.835Z,0.25
2023-04-11T23:19:27.611Z,0.30
2023-04-11T23:21:55.782Z,0.22
2023-04-11T23:24:22.999Z,0.35
2023-04-11T23:26:50.700Z,0.22
2023-04-11T23:29:20.669Z,0.20
2023-04-11T23:31:47.925Z,0.30
2023-04-11T23:34:16.309Z,0.20
2023-04-11T23:36:43.678Z,0.43
2023-04-11T23:39:11.423Z,0.10
2023-04-11T23:41:42.259Z,0.60
2023-04-11T23:44:09.670Z,0.63
2023-04-11T23:46:36.795Z,0.63
2023-04-11T23:49:05.069Z,0.70
2023-04-11T23:51:32.709Z,0.32
2023-04-11T23:54:00.485Z,0.30
2023-04-11T23:56:30.380Z,0.30
2023-04-11T23:59:00.184Z,0.35
